Time,TemperatureF,DewpointF,PressureIn,WindDirection,WindDirectionDegrees,WindSpeedMPH,WindSpeedGustMPH,Humidity,HourlyPrecipIn,Conditions,Clouds,dailyrainin,SoftwareType,DateUTC
2013-02-17 00:11:00,28.6,16.1,29.67,NE,45,3.7,-999.0,59,-99.99,,,0.00,Acu-Link.com,2013-02-17 05:11:00,
2013-02-17 00:26:00,28.4,16.3,29.67,NNE,22,2.2,-999.0,60,-99.99,,,0.00,Acu-Link.com,2013-02-17 05:26:00,
2013-02-17 00:41:00,28.0,15.9,29.66,ENE,67,2.2,-999.0,60,-99.99,,,0.00,Acu-Link.com,2013-02-17 05:41:00,
2013-02-17 00:56:00,27.7,16.0,29.66,NNW,337,2.2,-999.0,61,-99.99,,,0.00,Acu-Link.com,2013-02-17 05:56:00,
2013-02-17 01:12:00,27.5,16.6,29.66,NNE,22,1.7,-999.0,63,-99.99,,,0.00,Acu-Link.com,2013-02-17 06:12:00,
2013-02-17 01:27:00,27.1,14.7,29.67,NNW,337,3.7,-999.0,59,-99.99,,,0.00,Acu-Link.com,2013-02-17 06:27:00,
2013-02-17 01:42:00,27.0,14.6,29.67,East,90,0.0,-999.0,59,-99.99,,,0.00,Acu-Link.com,2013-02-17 06:42:00,
2013-02-17 01:57:00,26.8,14.4,29.66,NNW,337,1.7,-999.0,59,-99.99,,,0.00,Acu-Link.com,2013-02-17 06:57:00,
2013-02-17 02:13:00,26.1,14.9,29.67,NE,45,0.0,-999.0,62,-99.99,,,0.00,Acu-Link.com,2013-02-17 07:13:00,
2013-02-17 02:28:00,25.5,14.3,29.67,North,0,3.7,-999.0,62,-99.99,,,0.00,Acu-Link.com,2013-02-17 07:28:00,
2013-02-17 02:43:00,26.1,14.9,29.66,ESE,112,5.8,-999.0,62,-99.99,,,0.00,Acu-Link.com,2013-02-17 07:43:00,
2013-02-17 02:59:00,25.2,13.3,29.67,West,270,2.2,-999.0,60,-99.99,,,0.00,Acu-Link.com,2013-02-17 07:59:00,
2013-02-17 03:14:00,25.0,12.7,29.66,SW,225,3.2,-999.0,59,-99.99,,,0.00,Acu-Link.com,2013-02-17 08:14:00,
2013-02-17 03:29:00,25.0,13.1,29.66,NNW,337,4.2,-999.0,60,-99.99,,,0.00,Acu-Link.com,2013-02-17 08:29:00,
2013-02-17 03:44:00,24.4,12.5,29.66,NNE,22,1.7,-999.0,60,-99.99,,,0.00,Acu-Link.com,2013-02-17 08:44:00,
2013-02-17 04:00:00,24.1,13.0,29.66,West,270,1.1,-999.0,62,-99.99,,,0.00,Acu-Link.com,2013-02-17 09:00:00,
2013-02-17 04:17:00,24.1,13.0,29.66,South,180,3.7,-999.0,62,-99.99,,,0.00,Acu-Link.com,2013-02-17 09:17:00,
2013-02-17 04:32:00,23.2,12.5,29.67,WNW,292,0.0,-999.0,63,-99.99,,,0.00,Acu-Link.com,2013-02-17 09:32:00,
2013-02-17 04:47:00,22.6,12.3,29.68,NNW,337,0.0,-999.0,64,-99.99,,,0.00,Acu-Link.com,2013-02-17 09:47:00,
2013-02-17 05:02:00,22.8,12.8,29.67,West,270,3.7,-999.0,65,-99.99,,,0.00,Acu-Link.com,2013-02-17 10:02:00,
2013-02-17 05:17:00,23.0,12.7,29.67,ESE,112,1.1,-999.0,64,-99.99,,,0.00,Acu-Link.com,2013-02-17 10:17:00,
2013-02-17 05:32:00,22.5,12.5,29.68,NE,45,2.2,-999.0,65,-99.99,,,0.00,Acu-Link.com,2013-02-17 10:32:00,
2013-02-17 05:47:00,22.5,12.9,29.68,NNW,337,2.2,-999.0,66,-99.99,,,0.00,Acu-Link.com,2013-02-17 10:47:00,
2013-02-17 06:03:00,22.1,12.8,29.68,NNE,22,0.0,-999.0,67,-99.99,,,0.00,Acu-Link.com,2013-02-17 11:03:00,
2013-02-17 06:18:00,21.9,12.7,29.68,East,90,2.2,-999.0,67,-99.99,,,0.00,Acu-Link.com,2013-02-17 11:18:00,
2013-02-17 06:33:00,22.3,13.0,29.68,West,270,3.2,-999.0,67,-99.99,,,0.00,Acu-Link.com,2013-02-17 11:33:00,
2013-02-17 06:48:00,22.3,13.0,29.68,NNW,337,2.7,-999.0,67,-99.99,,,0.00,Acu-Link.com,2013-02-17 11:48:00,
2013-02-17 07:04:00,22.3,13.0,29.69,NNE,22,1.7,-999.0,67,-99.99,,,0.00,Acu-Link.com,2013-02-17 12:04:00,
2013-02-17 07:19:00,22.6,13.0,29.69,WNW,292,4.2,-999.0,66,-99.99,,,0.00,Acu-Link.com,2013-02-17 12:19:00,
2013-02-17 07:34:00,22.8,12.5,29.70,NNW,337,7.8,-999.0,64,-99.99,,,0.00,Acu-Link.com,2013-02-17 12:34:00,
2013-02-17 07:49:00,23.7,12.2,29.70,NNW,337,1.7,-999.0,61,-99.99,,,0.00,Acu-Link.com,2013-02-17 12:49:00,
2013-02-17 08:05:00,23.9,11.3,29.70,NW,315,8.3,-999.0,58,-99.99,,,0.00,Acu-Link.com,2013-02-17 13:05:00,
2013-02-17 08:20:00,24.1,11.1,29.71,NW,315,5.8,-999.0,57,-99.99,,,0.00,Acu-Link.com,2013-02-17 13:20:00,
2013-02-17 08:35:00,24.8,11.4,29.71,NNW,337,6.8,-999.0,56,-99.99,,,0.00,Acu-Link.com,2013-02-17 13:35:00,
2013-02-17 08:51:00,25.0,11.5,29.71,NW,315,5.8,-999.0,56,-99.99,,,0.00,Acu-Link.com,2013-02-17 13:51:00,
2013-02-17 09:06:00,25.9,12.8,29.71,ENE,67,5.8,-999.0,57,-99.99,,,0.00,Acu-Link.com,2013-02-17 14:06:00,
2013-02-17 09:21:00,26.2,12.3,29.71,North,0,3.7,-999.0,55,-99.99,,,0.00,Acu-Link.com,2013-02-17 14:21:00,
2013-02-17 09:36:00,26.8,12.4,29.72,NNW,337,5.3,-999.0,54,-99.99,,,0.00,Acu-Link.com,2013-02-17 14:36:00,
2013-02-17 09:51:00,26.6,11.8,29.72,West,270,9.4,-999.0,53,-99.99,,,0.00,Acu-Link.com,2013-02-17 14:51:00,
2013-02-17 10:07:00,27.3,12.5,29.72,NE,45,4.7,-999.0,53,-99.99,,,0.00,Acu-Link.com,2013-02-17 15:07:00,
2013-02-17 10:22:00,27.5,12.6,29.72,West,270,10.4,-999.0,53,-99.99,,,0.00,Acu-Link.com,2013-02-17 15:22:00,
2013-02-17 10:37:00,27.1,12.3,29.74,West,270,13.0,-999.0,53,-99.99,,,0.00,Acu-Link.com,2013-02-17 15:37:00,
2013-02-17 10:53:00,28.8,13.4,29.74,West,270,6.8,-999.0,52,-99.99,,,0.00,Acu-Link.com,2013-02-17 15:53:00,
2013-02-17 11:08:00,28.0,11.8,29.74,North,0,3.2,-999.0,50,-99.99,,,0.00,Acu-Link.com,2013-02-17 16:08:00,
2013-02-17 11:23:00,28.4,12.2,29.74,East,90,4.2,-999.0,50,-99.99,,,0.00,Acu-Link.com,2013-02-17 16:23:00,
2013-02-17 11:38:00,28.4,12.2,29.74,WNW,292,4.7,-999.0,50,-99.99,,,0.00,Acu-Link.com,2013-02-17 16:38:00,
2013-02-17 11:53:00,29.1,12.4,29.74,East,90,9.4,-999.0,49,-99.99,,,0.00,Acu-Link.com,2013-02-17 16:53:00,
2013-02-17 12:09:00,29.5,13.2,29.74,West,270,7.8,-999.0,50,-99.99,,,0.00,Acu-Link.com,2013-02-17 17:09:00,
2013-02-17 12:24:00,29.3,11.1,29.73,WNW,292,6.8,-999.0,46,-99.99,,,0.00,Acu-Link.com,2013-02-17 17:24:00,
2013-02-17 12:39:00,28.4,13.0,29.74,NNW,337,4.7,-999.0,52,-99.99,,,0.00,Acu-Link.com,2013-02-17 17:39:00,
2013-02-17 12:54:00,28.8,12.1,29.73,NNW,337,10.9,-999.0,49,-99.99,,,0.00,Acu-Link.com,2013-02-17 17:54:00,
2013-02-17 13:09:00,27.7,12.0,29.73,WSW,247,16.1,-999.0,51,-99.99,,,0.00,Acu-Link.com,2013-02-17 18:09:00,
2013-02-17 13:25:00,30.9,14.5,29.73,NW,315,8.9,-999.0,50,-99.99,,,0.00,Acu-Link.com,2013-02-17 18:25:00,
2013-02-17 13:40:00,30.2,15.6,29.73,NW,315,9.9,-999.0,54,-99.99,,,0.00,Acu-Link.com,2013-02-17 18:40:00,
2013-02-17 13:55:00,27.5,14.3,29.74,West,270,9.9,-999.0,57,-99.99,,,0.00,Acu-Link.com,2013-02-17 18:55:00,
2013-02-17 14:10:00,30.0,13.6,29.73,NW,315,12.5,-999.0,50,-99.99,,,0.00,Acu-Link.com,2013-02-17 19:10:00,
2013-02-17 14:26:00,30.4,13.6,29.74,NW,315,2.7,-999.0,49,-99.99,,,0.00,Acu-Link.com,2013-02-17 19:26:00,
2013-02-17 14:41:00,27.3,14.9,29.75,NNE,22,5.3,-999.0,59,-99.99,,,0.00,Acu-Link.com,2013-02-17 19:41:00,
2013-02-17 14:56:00,26.6,13.0,29.76,SE,135,8.3,-999.0,56,-99.99,,,0.00,Acu-Link.com,2013-02-17 19:56:00,
2013-02-17 15:12:00,28.4,10.3,29.75,NW,315,7.8,-999.0,46,-99.99,,,0.00,Acu-Link.com,2013-02-17 20:12:00,
2013-02-17 15:27:00,27.0,8.5,29.76,West,270,11.9,-999.0,45,-99.99,,,0.00,Acu-Link.com,2013-02-17 20:27:00,
2013-02-17 15:42:00,27.1,13.1,29.76,NNW,337,7.3,-999.0,55,-99.99,,,0.00,Acu-Link.com,2013-02-17 20:42:00,
2013-02-17 15:57:00,27.0,9.0,29.77,North,0,12.5,-999.0,46,-99.99,,,0.00,Acu-Link.com,2013-02-17 20:57:00,
2013-02-17 16:13:00,27.9,7.8,29.76,NNW,337,7.3,-999.0,42,-99.99,,,0.00,Acu-Link.com,2013-02-17 21:13:00,
2013-02-17 16:28:00,28.0,6.8,29.78,West,270,8.9,-999.0,40,-99.99,,,0.00,Acu-Link.com,2013-02-17 21:28:00,
2013-02-17 16:43:00,27.0,8.0,29.78,West,270,11.9,-999.0,44,-99.99,,,0.00,Acu-Link.com,2013-02-17 21:43:00,
2013-02-17 16:58:00,27.9,7.3,29.78,WNW,292,6.3,-999.0,41,-99.99,,,0.00,Acu-Link.com,2013-02-17 21:58:00,
2013-02-17 17:14:00,27.1,7.6,29.79,NNE,22,9.4,-999.0,43,-99.99,,,0.00,Acu-Link.com,2013-02-17 22:14:00,
2013-02-17 17:29:00,26.2,9.2,29.80,West,270,6.8,-999.0,48,-99.99,,,0.00,Acu-Link.com,2013-02-17 22:29:00,
2013-02-17 17:44:00,25.7,8.3,29.81,WNW,292,11.9,-999.0,47,-99.99,,,0.00,Acu-Link.com,2013-02-17 22:44:00,
2013-02-17 18:00:00,25.3,8.8,29.83,North,0,9.4,-999.0,49,-99.99,,,0.00,Acu-Link.com,2013-02-17 23:00:00,
2013-02-17 18:15:00,25.0,7.6,29.85,ENE,67,5.3,-999.0,47,-99.99,,,0.00,Acu-Link.com,2013-02-17 23:15:00,
2013-02-17 18:30:00,24.6,8.6,29.85,West,270,3.2,-999.0,50,-99.99,,,0.00,Acu-Link.com,2013-02-17 23:30:00,
2013-02-17 18:45:00,24.6,8.2,29.86,West,270,8.9,-999.0,49,-99.99,,,0.00,Acu-Link.com,2013-02-17 23:45:00,
2013-02-17 19:01:00,24.1,9.1,29.87,West,270,3.7,-999.0,52,-99.99,,,0.00,Acu-Link.com,2013-02-18 00:01:00,
2013-02-17 19:16:00,24.3,7.9,29.87,NE,45,8.9,-999.0,49,-99.99,,,0.00,Acu-Link.com,2013-02-18 00:16:00,
2013-02-17 19:31:00,24.1,7.7,29.88,NE,45,6.8,-999.0,49,-99.99,,,0.00,Acu-Link.com,2013-02-18 00:31:00,
2013-02-17 19:46:00,23.9,8.0,29.89,NNW,337,10.4,-999.0,50,-99.99,,,0.00,Acu-Link.com,2013-02-18 00:46:00,
2013-02-17 20:01:00,23.9,8.0,29.90,West,270,7.8,-999.0,50,-99.99,,,0.00,Acu-Link.com,2013-02-18 01:01:00,
2013-02-17 20:17:00,23.5,7.6,29.91,West,270,5.3,-999.0,50,-99.99,,,0.00,Acu-Link.com,2013-02-18 01:17:00,
2013-02-17 20:32:00,23.4,7.5,29.91,NW,315,6.3,-999.0,50,-99.99,,,0.00,Acu-Link.com,2013-02-18 01:32:00,
2013-02-17 20:47:00,23.4,7.1,29.92,NW,315,7.3,-999.0,49,-99.99,,,0.00,Acu-Link.com,2013-02-18 01:47:00,
2013-02-17 21:02:00,23.4,7.5,29.93,NNW,337,6.8,-999.0,50,-99.99,,,0.00,Acu-Link.com,2013-02-18 02:02:00,
2013-02-17 21:17:00,23.4,7.5,29.94,SSW,202,10.4,-999.0,50,-99.99,,,0.00,Acu-Link.com,2013-02-18 02:17:00,
2013-02-17 21:32:00,23.0,7.6,29.95,NW,315,8.9,-999.0,51,-99.99,,,0.00,Acu-Link.com,2013-02-18 02:32:00,
2013-02-17 21:48:00,22.1,7.2,29.96,WNW,292,9.4,-999.0,52,-99.99,,,0.00,Acu-Link.com,2013-02-18 02:48:00,
2013-02-17 22:03:00,22.1,5.4,29.97,West,270,8.3,-999.0,48,-99.99,,,0.00,Acu-Link.com,2013-02-18 03:03:00,
2013-02-17 22:18:00,21.2,5.1,29.97,West,270,6.3,-999.0,49,-99.99,,,0.00,Acu-Link.com,2013-02-18 03:18:00,
2013-02-17 22:33:00,21.4,4.8,29.98,East,90,8.3,-999.0,48,-99.99,,,0.00,Acu-Link.com,2013-02-18 03:33:00,
2013-02-17 22:49:00,21.2,4.6,29.98,WNW,292,4.7,-999.0,48,-99.99,,,0.00,Acu-Link.com,2013-02-18 03:49:00,
2013-02-17 23:04:00,20.8,5.6,29.98,WSW,247,2.2,-999.0,51,-99.99,,,0.00,Acu-Link.com,2013-02-18 04:04:00,
2013-02-17 23:19:00,20.8,5.1,29.99,West,270,4.7,-999.0,50,-99.99,,,0.00,Acu-Link.com,2013-02-18 04:19:00,
2013-02-17 23:35:00,21.0,5.3,30.00,WNW,292,11.9,-999.0,50,-99.99,,,0.00,Acu-Link.com,2013-02-18 04:35:00,
2013-02-17 23:50:00,21.7,5.5,30.00,NE,45,10.4,-999.0,49,-99.99,,,0.00,Acu-Link.com,2013-02-18 04:50:00,